createdAt,value
2022-10-06T00:01:55.640Z,100639.72
2022-10-06T00:04:24.249Z,100641.41
2022-10-06T00:06:52.797Z,100643.16
2022-10-06T00:09:21.478Z,100646.47
2022-10-06T00:11:50.039Z,100643.03
2022-10-06T00:14:20.329Z,100644.66
2022-10-06T00:16:49.079Z,100646.34
2022-10-06T00:19:17.678Z,100648.06
2022-10-06T00:21:46.398Z,100648.06
2022-10-06T00:24:14.998Z,100643.88
2022-10-06T00:26:44.218Z,100646.34
2022-10-06T00:29:14.008Z,100645.41
2022-10-06T00:31:44.116Z,100643.66
2022-10-06T00:34:13.093Z,100639.38
2022-10-06T00:36:41.758Z,100639.38
2022-10-06T00:39:10.776Z,100643.66
2022-10-06T00:41:40.512Z,100637.75
2022-10-06T00:44:09.366Z,100642.84
2022-10-06T00:46:43.441Z,100646.19
2022-10-06T00:49:19.487Z,100654.50
2022-10-06T00:51:52.886Z,100650.28
2022-10-06T00:54:22.166Z,100640.97
2022-10-06T00:56:52.490Z,100636.75
2022-10-06T00:59:21.485Z,100647.75
2022-10-06T01:01:58.460Z,100647.75
2022-10-06T01:04:32.899Z,100636.59
2022-10-06T01:07:04.129Z,100645.91
2022-10-06T01:09:33.169Z,100645.06
2022-10-06T01:12:05.010Z,100649.25
2022-10-06T01:14:34.469Z,100648.25
2022-10-06T01:17:07.960Z,100653.28
2022-10-06T01:19:50.058Z,100654.13
2022-10-06T01:22:24.827Z,100650.50
2022-10-06T01:24:54.947Z,100646.97
2022-10-06T01:27:26.967Z,100656.38
2022-10-06T01:29:57.599Z,100653.75
2022-10-06T01:32:31.798Z,100653.59
2022-10-06T01:35:01.577Z,100649.13
2022-10-06T01:37:30.930Z,100639.75
2022-10-06T01:40:00.978Z,100644.84
2022-10-06T01:42:32.188Z,100639.81
2022-10-06T01:45:04.159Z,100640.47
2022-10-06T01:47:32.877Z,100646.31
2022-10-06T01:50:01.550Z,100635.34
2022-10-06T01:52:31.960Z,100637.84
2022-10-06T01:55:01.995Z,100633.59
2022-10-06T01:57:32.367Z,100634.06
2022-10-06T02:00:00.938Z,100634.06
2022-10-06T02:02:31.935Z,100640.97
2022-10-06T02:05:00.600Z,100637.66
2022-10-06T02:07:29.429Z,100638.44
2022-10-06T02:09:58.117Z,100635.91
2022-10-06T02:12:28.098Z,100636.78
2022-10-06T02:14:57.284Z,100638.34
2022-10-06T02:17:26.618Z,100638.44
2022-10-06T02:19:55.263Z,100635.03
2022-10-06T02:22:24.387Z,100640.03
2022-10-06T02:24:52.966Z,100632.13
2022-10-06T02:27:22.159Z,100632.16
2022-10-06T02:29:52.179Z,100638.97
2022-10-06T02:32:20.957Z,100645.84
2022-10-06T02:34:50.105Z,100645.91
2022-10-06T02:37:18.670Z,100644.22
2022-10-06T02:39:47.489Z,100650.09
2022-10-06T02:42:16.370Z,100646.72
2022-10-06T02:44:44.995Z,100660.28
2022-10-06T02:47:16.708Z,100668.75
2022-10-06T02:49:45.507Z,100662.94
2022-10-06T02:52:14.281Z,100659.53
2022-10-06T02:54:43.986Z,100666.38
2022-10-06T02:57:12.427Z,100663.81
2022-10-06T02:59:41.027Z,100668.94
2022-10-06T03:02:09.843Z,100673.16
2022-10-06T03:04:40.036Z,100673.13
2022-10-06T03:07:08.747Z,100671.25
2022-10-06T03:09:39.741Z,100666.19
2022-10-06T03:12:10.336Z,100662.66
2022-10-06T03:14:42.226Z,100665.81
2022-10-06T03:17:11.413Z,100660.53
2022-10-06T03:19:48.636Z,100658.81
2022-10-06T03:22:17.330Z,100654.31
2022-10-06T03:24:53.467Z,100649.19
2022-10-06T03:27:23.172Z,100652.44
2022-10-06T03:29:54.596Z,100645.53
2022-10-06T03:32:25.681Z,100641.97
2022-10-06T03:34:55.859Z,100650.38
2022-10-06T03:37:24.725Z,100652.69
2022-10-06T03:39:53.360Z,100658.56
2022-10-06T03:42:22.129Z,100650.88
2022-10-06T03:44:50.827Z,100651.75
2022-10-06T03:47:19.417Z,100655.25
2022-10-06T03:49:48.927Z,100656.16
2022-10-06T03:52:25.100Z,100656.25
2022-10-06T03:54:55.999Z,100660.75
2022-10-06T03:57:24.816Z,100665.97
2022-10-06T03:59:53.676Z,100657.63
2022-10-06T04:02:22.206Z,100662.03
2022-10-06T04:04:50.860Z,100664.59
2022-10-06T04:07:20.817Z,100668.91
2022-10-06T04:09:49.989Z,100668.91
2022-10-06T04:12:19.489Z,100675.75
2022-10-06T04:14:48.349Z,100669.94
2022-10-06T04:17:16.978Z,100671.53
2022-10-06T04:19:46.391Z,100669.81
2022-10-06T04:22:15.447Z,100675.81
2022-10-06T04:24:46.090Z,100674.16
2022-10-06T04:27:23.777Z,100674.06
2022-10-06T04:29:58.681Z,100669.06
2022-10-06T04:32:27.539Z,100669.84
2022-10-06T04:34:56.679Z,100672.50
2022-10-06T04:37:29.075Z,100673.47
2022-10-06T04:40:01.606Z,100667.59
2022-10-06T04:42:35.102Z,100670.16
2022-10-06T04:45:09.338Z,100661.56
2022-10-06T04:47:40.356Z,100671.91
2022-10-06T04:50:09.639Z,100666.88
2022-10-06T04:52:41.670Z,100671.19
2022-10-06T04:55:12.438Z,100677.97
2022-10-06T04:57:42.189Z,100683.06
2022-10-06T05:00:22.711Z,100682.28
2022-10-06T05:02:52.357Z,100686.59
2022-10-06T05:05:21.217Z,100686.66
2022-10-06T05:07:51.946Z,100685.84
2022-10-06T05:10:21.961Z,100692.69
2022-10-06T05:12:50.739Z,100691.94
2022-10-06T05:15:20.478Z,100694.63
2022-10-06T05:17:49.397Z,100693.94
2022-10-06T05:20:18.131Z,100695.78
2022-10-06T05:22:47.570Z,100690.78
2022-10-06T05:25:16.508Z,100699.34
2022-10-06T05:27:47.094Z,100699.47
2022-10-06T05:30:16.115Z,100709.78
2022-10-06T05:32:50.689Z,100703.91
2022-10-06T05:35:21.670Z,100708.31
2022-10-06T05:37:50.446Z,100713.50
2022-10-06T05:40:19.220Z,100715.34
2022-10-06T05:42:49.371Z,100717.22
2022-10-06T05:45:18.047Z,100721.59
2022-10-06T05:47:46.768Z,100722.53
2022-10-06T05:50:16.369Z,100724.31
2022-10-06T05:52:44.977Z,100720.97
2022-10-06T05:55:13.605Z,100732.19
2022-10-06T05:57:43.116Z,100732.34
2022-10-06T06:00:14.187Z,100740.13
2022-10-06T06:02:46.498Z,100737.63
2022-10-06T06:05:16.039Z,100734.34
2022-10-06T06:07:44.680Z,100743.81
2022-10-06T06:10:13.350Z,100748.13
2022-10-06T06:12:42.279Z,100744.75
2022-10-06T06:15:45.118Z,100743.13
2022-10-06T06:18:14.096Z,100738.94
2022-10-06T06:20:42.802Z,100747.53
2022-10-06T06:23:11.528Z,100751.88
2022-10-06T06:25:40.080Z,100750.28
2022-10-06T06:28:09.066Z,100755.50
2022-10-06T06:30:39.227Z,100763.28
2022-10-06T06:33:08.206Z,100755.63
2022-10-06T06:35:38.460Z,100766.03
2022-10-06T06:38:12.199Z,100775.50
2022-10-06T06:40:42.076Z,100778.13
2022-10-06T06:43:13.648Z,100781.69
2022-10-06T06:46:05.562Z,100792.91
2022-10-06T06:48:49.553Z,100787.97
2022-10-06T06:51:19.437Z,100789.81
2022-10-06T06:53:48.275Z,100787.41
2022-10-06T06:56:17.940Z,100784.16
2022-10-06T06:58:47.711Z,100789.28
2022-10-06T07:01:19.985Z,100786.78
2022-10-06T07:03:58.534Z,100785.13
2022-10-06T07:06:32.812Z,100792.88
2022-10-06T07:09:04.270Z,100798.91
2022-10-06T07:11:35.323Z,100795.56
2022-10-06T07:14:09.838Z,100791.38
2022-10-06T07:16:49.731Z,100800.81
2022-10-06T07:19:29.884Z,100797.41
2022-10-06T07:22:10.540Z,100799.22
2022-10-06T07:24:49.310Z,100809.50
2022-10-06T07:27:17.930Z,100802.72
2022-10-06T07:29:47.381Z,100807.91
2022-10-06T07:32:21.430Z,100802.81
2022-10-06T07:34:51.496Z,100802.91
2022-10-06T07:37:21.038Z,100808.03
2022-10-06T07:39:50.114Z,100805.53
2022-10-06T07:42:19.687Z,100812.44
2022-10-06T07:45:09.190Z,100812.44
2022-10-06T07:47:42.057Z,100815.94
2022-10-06T07:50:13.388Z,100816.81
2022-10-06T07:52:42.266Z,100812.53
2022-10-06T07:55:12.292Z,100816.84
2022-10-06T07:58:01.163Z,100814.28
2022-10-06T08:00:30.004Z,100804.06
2022-10-06T08:03:00.143Z,100801.53
2022-10-06T08:05:28.791Z,100810.91
2022-10-06T08:07:59.072Z,100810.91
2022-10-06T08:10:27.641Z,100808.38
2022-10-06T08:12:56.162Z,100815.22
2022-10-06T08:15:24.732Z,100818.66
2022-10-06T08:17:54.088Z,100818.72
2022-10-06T08:20:24.467Z,100814.47
2022-10-06T08:22:53.110Z,100823.09
2022-10-06T08:25:21.954Z,100820.69
2022-10-06T08:27:53.535Z,100827.63
2022-10-06T08:30:27.641Z,100826.88
2022-10-06T08:32:59.094Z,100824.44
2022-10-06T08:35:29.245Z,100831.34
2022-10-06T08:37:57.916Z,100822.88
2022-10-06T08:40:28.129Z,100822.94
2022-10-06T08:42:59.182Z,100824.66
2022-10-06T08:45:38.598Z,100819.53
2022-10-06T08:48:14.143Z,100825.53
2022-10-06T08:50:53.923Z,100837.53
2022-10-06T08:53:30.660Z,100840.13
2022-10-06T08:56:05.727Z,100834.94
2022-10-06T08:58:47.381Z,100834.91
2022-10-06T09:01:20.077Z,100838.31
2022-10-06T09:03:52.203Z,100833.13
2022-10-06T09:06:36.835Z,100833.03
2022-10-06T09:09:15.405Z,100839.03
2022-10-06T09:11:52.502Z,100841.59
2022-10-06T09:14:27.202Z,100843.25
2022-10-06T09:17:00.864Z,100837.19
2022-10-06T09:19:41.315Z,100834.53
2022-10-06T09:22:19.421Z,100820.72
2022-10-06T09:24:51.084Z,100827.50
2022-10-06T09:27:23.328Z,100826.63
2022-10-06T09:29:53.095Z,100830.91
2022-10-06T09:32:24.853Z,100820.47
2022-10-06T09:34:56.116Z,100834.06
2022-10-06T09:37:26.123Z,100831.41
2022-10-06T09:39:56.068Z,100833.06
2022-10-06T09:42:28.696Z,100832.13
2022-10-06T09:45:04.365Z,100829.47
2022-10-06T09:47:42.095Z,100828.53
2022-10-06T09:50:21.973Z,100832.78
2022-10-06T09:53:19.162Z,100831.84
2022-10-06T09:55:55.082Z,100832.47
2022-10-06T09:58:33.039Z,100838.28
2022-10-06T10:01:04.061Z,100833.06
2022-10-06T10:04:08.506Z,100839.97
2022-10-06T10:06:40.432Z,100841.53
2022-10-06T10:09:25.005Z,100839.59
2022-10-06T10:12:23.207Z,100830.88
2022-10-06T10:14:52.204Z,100825.50
2022-10-06T10:17:23.645Z,100827.19
2022-10-06T10:19:55.583Z,100831.28
2022-10-06T10:22:29.033Z,100828.44
2022-10-06T10:25:09.494Z,100830.13
2022-10-06T10:27:52.045Z,100839.53
2022-10-06T10:30:20.763Z,100841.00
2022-10-06T10:33:02.517Z,100834.03
2022-10-06T10:35:34.432Z,100835.69
2022-10-06T10:38:13.782Z,100837.94
2022-10-06T10:40:51.176Z,100831.81
2022-10-06T10:43:30.810Z,100829.19
2022-10-06T10:46:07.878Z,100825.59
2022-10-06T10:48:44.667Z,100825.22
2022-10-06T10:51:17.366Z,100830.16
2022-10-06T10:53:51.410Z,100830.88
2022-10-06T10:56:23.304Z,100817.72
2022-10-06T10:58:57.556Z,100816.66
2022-10-06T11:01:36.443Z,100813.25
2022-10-06T11:04:05.614Z,100798.66
2022-10-06T11:06:55.216Z,100814.06
2022-10-06T11:09:31.520Z,100821.44
2022-10-06T11:12:15.608Z,100818.63
2022-10-06T11:14:54.680Z,100816.69
2022-10-06T11:17:45.473Z,100813.34
2022-10-06T11:20:34.348Z,100810.75
2022-10-06T11:23:21.721Z,100806.88
2022-10-06T11:25:59.577Z,100810.97
2022-10-06T11:28:39.790Z,100803.25
2022-10-06T11:31:22.858Z,100803.13
2022-10-06T11:33:54.956Z,100801.28
2022-10-06T11:36:31.926Z,100799.19
2022-10-06T11:39:08.548Z,100806.72
2022-10-06T11:41:43.918Z,100798.84
2022-10-06T11:44:22.699Z,100795.41
2022-10-06T11:46:57.884Z,100789.44
2022-10-06T11:49:39.786Z,100793.00
2022-10-06T11:52:30.296Z,100790.19
2022-10-06T11:55:10.567Z,100783.88
2022-10-06T12:01:09.438Z,100786.38
2022-10-06T12:04:06.602Z,100794.03
2022-10-06T12:06:56.517Z,100790.56
2022-10-06T12:09:52.384Z,100760.63
2022-10-06T12:12:47.743Z,100791.56
2022-10-06T12:18:47.286Z,100791.28
2022-10-06T12:21:37.535Z,100791.28
2022-10-06T12:24:20.817Z,100785.09
2022-10-06T12:26:59.617Z,100787.75
2022-10-06T12:29:43.446Z,100793.34
2022-10-06T12:32:22.385Z,100789.53
2022-10-06T12:34:59.846Z,100785.69
2022-10-06T12:37:42.776Z,100785.50
2022-10-06T12:40:33.647Z,100785.59
2022-10-06T12:43:25.094Z,100780.47
2022-10-06T12:46:00.091Z,100768.97
2022-10-06T12:48:37.788Z,100773.09
2022-10-06T12:51:18.464Z,100777.63
2022-10-06T12:53:58.669Z,100775.75
2022-10-06T12:56:31.948Z,100771.09
2022-10-06T12:59:19.218Z,100779.84
2022-10-06T13:01:51.064Z,100778.13
2022-10-06T13:04:38.619Z,100778.00
2022-10-06T13:07:15.296Z,100777.94
2022-10-06T13:09:44.599Z,100780.16
2022-10-06T13:12:29.183Z,100777.44
2022-10-06T13:15:15.236Z,100788.84
2022-10-06T13:17:50.289Z,100780.84
2022-10-06T13:20:23.249Z,100784.88
2022-10-06T13:23:00.709Z,100784.72
2022-10-06T13:25:42.660Z,100783.47
2022-10-06T13:28:27.285Z,100784.72
2022-10-06T13:30:58.695Z,100785.25
2022-10-06T13:33:41.466Z,100780.63
2022-10-06T13:36:12.652Z,100792.34
2022-10-06T13:38:42.799Z,100793.34
2022-10-06T13:41:23.046Z,100785.28
2022-10-06T13:43:55.705Z,100787.00
2022-10-06T13:46:27.532Z,100792.19
2022-10-06T13:49:03.678Z,100792.19
2022-10-06T13:51:33.914Z,100783.56
2022-10-06T13:54:07.928Z,100786.53
2022-10-06T13:56:39.172Z,100788.94
2022-10-06T13:59:29.552Z,100786.78
2022-10-06T14:01:59.888Z,100781.50
2022-10-06T14:04:31.814Z,100777.09
2022-10-06T14:07:03.365Z,100782.38
2022-10-06T14:09:34.330Z,100776.84
2022-10-06T14:12:05.516Z,100781.28
2022-10-06T14:14:35.202Z,100784.88
2022-10-06T14:17:04.338Z,100781.53
2022-10-06T14:19:37.581Z,100781.59
2022-10-06T14:22:27.811Z,100781.88
2022-10-06T14:24:56.468Z,100790.81
2022-10-06T14:27:25.094Z,100788.59
2022-10-06T14:29:53.778Z,100793.44
2022-10-06T14:32:22.702Z,100789.56
2022-10-06T14:34:52.678Z,100793.28
2022-10-06T14:37:21.370Z,100779.69
2022-10-06T14:39:52.813Z,100781.84
2022-10-06T14:42:25.014Z,100787.38
2022-10-06T14:44:53.671Z,100786.06
2022-10-06T14:47:22.238Z,100792.53
2022-10-06T14:49:50.860Z,100783.41
2022-10-06T14:52:21.869Z,100786.41
2022-10-06T14:54:50.927Z,100798.00
2022-10-06T14:57:21.018Z,100791.34
2022-10-06T14:59:51.679Z,100796.78
2022-10-06T15:02:21.349Z,100796.16
2022-10-06T15:04:50.003Z,100794.50
2022-10-06T15:07:38.249Z,100797.25
2022-10-06T15:10:09.221Z,100794.84
2022-10-06T15:12:37.920Z,100788.16
2022-10-06T15:15:07.810Z,100791.75
2022-10-06T15:17:36.450Z,100787.63
2022-10-06T15:20:05.341Z,100793.78
2022-10-06T15:22:34.460Z,100792.19
2022-10-06T15:25:03.954Z,100798.34
2022-10-06T15:27:44.135Z,100800.16
2022-10-06T15:30:13.512Z,100800.25
2022-10-06T15:32:42.156Z,100804.72
2022-10-06T15:35:11.203Z,100802.25
2022-10-06T15:37:41.270Z,100810.91
2022-10-06T15:40:10.830Z,100806.66
2022-10-06T15:42:41.008Z,100809.41
2022-10-06T15:45:10.701Z,100806.09
2022-10-06T15:47:39.130Z,100817.31
2022-10-06T15:50:08.493Z,100813.97
2022-10-06T15:52:37.601Z,100821.84
2022-10-06T15:55:06.653Z,100826.22
2022-10-06T15:57:35.733Z,100825.53
2022-10-06T16:00:06.688Z,100825.56
2022-10-06T16:02:41.336Z,100831.66
2022-10-06T16:05:20.459Z,100836.88
2022-10-06T16:07:49.226Z,100837.00
2022-10-06T16:10:17.902Z,100834.56
2022-10-06T16:12:46.398Z,100841.44
2022-10-06T16:15:16.729Z,100838.94
2022-10-06T16:17:45.403Z,100840.72
2022-10-06T16:20:15.572Z,100845.06
2022-10-06T16:22:44.249Z,100846.03
2022-10-06T16:25:12.807Z,100841.78
2022-10-06T16:27:41.572Z,100858.19
2022-10-06T16:30:10.915Z,100853.00
2022-10-06T16:32:41.275Z,100857.38
2022-10-06T16:35:14.755Z,100862.59
2022-10-06T16:37:50.116Z,100861.84
2022-10-06T16:40:19.145Z,100863.59
2022-10-06T16:42:47.703Z,100868.78
2022-10-06T16:45:16.546Z,100875.66
2022-10-06T16:47:46.423Z,100883.41
2022-10-06T16:50:15.180Z,100879.16
2022-10-06T16:52:43.729Z,100882.63
2022-10-06T16:55:12.480Z,100882.66
2022-10-06T16:57:40.973Z,100895.53
2022-10-06T17:00:11.153Z,100879.25
2022-10-06T17:02:41.154Z,100886.13
2022-10-06T17:05:11.436Z,100889.59
2022-10-06T17:07:39.947Z,100893.06
2022-10-06T17:10:20.024Z,100899.09
2022-10-06T17:12:49.994Z,100896.59
2022-10-06T17:15:18.677Z,100898.31
2022-10-06T17:17:48.020Z,100898.31
2022-10-06T17:20:18.076Z,100903.50
2022-10-06T17:22:46.752Z,100902.66
2022-10-06T17:25:15.577Z,100902.69
2022-10-06T17:27:44.717Z,100900.94
2022-10-06T17:30:15.726Z,100905.28
2022-10-06T17:32:47.605Z,100906.16
2022-10-06T17:35:20.278Z,100913.00
2022-10-06T17:37:50.451Z,100908.69
2022-10-06T17:40:19.205Z,100913.00
2022-10-06T17:42:47.772Z,100914.72
2022-10-06T17:45:21.107Z,100906.13
2022-10-06T17:47:52.184Z,100908.72
2022-10-06T17:50:22.283Z,100917.25
2022-10-06T17:52:50.856Z,100911.28
2022-10-06T17:55:19.645Z,100920.72
2022-10-06T17:57:48.288Z,100919.84
2022-10-06T18:00:18.344Z,100919.84
2022-10-06T18:02:47.139Z,100925.84
2022-10-06T18:05:17.042Z,100921.56
2022-10-06T18:07:46.807Z,100927.56
2022-10-06T18:10:26.719Z,100929.25
2022-10-06T18:12:55.191Z,100937.84
2022-10-06T18:15:23.746Z,100934.41
2022-10-06T18:17:52.945Z,100932.69
2022-10-06T18:20:21.702Z,100931.81
2022-10-06T18:22:53.336Z,100937.81
2022-10-06T18:25:26.535Z,100935.25
2022-10-06T18:27:56.595Z,100886.34
2022-10-06T18:30:29.378Z,100943.78
2022-10-06T18:35:57.698Z,100949.75
2022-10-06T18:38:47.212Z,100949.75
2022-10-06T18:41:18.213Z,100948.03
2022-10-06T18:43:47.716Z,100949.72
2022-10-06T18:46:29.032Z,100951.41
2022-10-06T18:48:59.165Z,100955.66
2022-10-06T18:51:31.473Z,100959.09
2022-10-06T18:54:04.374Z,100956.47
2022-10-06T18:56:36.253Z,100952.13
2022-10-06T18:59:06.693Z,100958.09
2022-10-06T19:01:39.953Z,100951.22
2022-10-06T19:04:10.426Z,100954.69
2022-10-06T19:06:42.735Z,100972.69
2022-10-06T19:09:18.754Z,100973.53
2022-10-06T19:11:52.159Z,100964.91
2022-10-06T19:14:22.733Z,100964.84
2022-10-06T19:16:56.607Z,100966.50
2022-10-06T19:19:26.824Z,100970.78
2022-10-06T19:21:59.646Z,100973.38
2022-10-06T19:24:35.588Z,100972.50
2022-10-06T19:27:11.702Z,100965.66
2022-10-06T19:29:44.794Z,100967.38
2022-10-06T19:32:16.767Z,100969.91
2022-10-06T19:34:47.026Z,100977.56
2022-10-06T19:37:15.996Z,100964.69
2022-10-06T19:39:50.459Z,100974.06
2022-10-06T19:42:29.583Z,100976.63
2022-10-06T19:44:58.739Z,100980.91
2022-10-06T19:47:27.890Z,100980.09
2022-10-06T19:50:02.066Z,100987.75
2022-10-06T19:52:32.907Z,100981.72
2022-10-06T19:55:02.895Z,100990.28
2022-10-06T19:57:33.900Z,100990.22
2022-10-06T20:00:02.798Z,100986.75
2022-10-06T20:02:43.250Z,100991.81
2022-10-06T20:05:14.371Z,100993.47
2022-10-06T20:07:44.251Z,100991.78
2022-10-06T20:10:16.515Z,100990.91
2022-10-06T20:12:45.268Z,100996.94
2022-10-06T20:15:14.297Z,100996.88
2022-10-06T20:17:43.498Z,100984.84
2022-10-06T20:20:12.173Z,101001.94
2022-10-06T20:22:40.867Z,101001.03
2022-10-06T20:25:09.798Z,101003.63
2022-10-06T20:27:39.867Z,100993.34
2022-10-06T20:30:09.792Z,100999.28
2022-10-06T20:32:39.325Z,100998.34
2022-10-06T20:35:08.859Z,100994.84
2022-10-06T20:37:38.648Z,101004.19
2022-10-06T20:40:24.796Z,101002.44
2022-10-06T20:42:55.018Z,100999.88
2022-10-06T20:45:24.591Z,101004.25
2022-10-06T20:47:53.218Z,101009.22
2022-10-06T20:50:21.903Z,101001.41
2022-10-06T20:52:50.796Z,100999.63
2022-10-06T20:55:19.365Z,100997.00
2022-10-06T20:57:50.460Z,101001.31
2022-10-06T21:00:24.024Z,100997.09
2022-10-06T21:02:52.850Z,100999.59
2022-10-06T21:05:21.633Z,101006.28
2022-10-06T21:07:50.879Z,100994.34
2022-10-06T21:10:19.413Z,100997.81
2022-10-06T21:12:48.314Z,100997.81
2022-10-06T21:15:17.303Z,100996.03
2022-10-06T21:17:48.859Z,100999.34
2022-10-06T21:20:17.835Z,100997.69
2022-10-06T21:22:46.514Z,100996.06
2022-10-06T21:25:15.323Z,100989.22
2022-10-06T21:27:47.033Z,100988.19
2022-10-06T21:30:16.464Z,100989.06
2022-10-06T21:32:46.480Z,100989.13
2022-10-06T21:35:15.140Z,100989.16
2022-10-06T21:37:44.392Z,100996.91
2022-10-06T21:40:13.322Z,100975.47
2022-10-06T21:42:41.934Z,100988.41
2022-10-06T21:45:11.474Z,100994.34
2022-10-06T21:47:40.173Z,100987.53
2022-10-06T21:50:11.139Z,100984.09
2022-10-06T21:52:39.903Z,100992.59
2022-10-06T21:55:09.122Z,100989.97
2022-10-06T21:57:37.883Z,100985.78
2022-10-06T22:00:11.260Z,100985.78
2022-10-06T22:02:41.982Z,100985.84
2022-10-06T22:05:12.320Z,100982.34
2022-10-06T22:07:41.338Z,100977.22
2022-10-06T22:10:10.835Z,100986.66
2022-10-06T22:12:39.582Z,100980.56
2022-10-06T22:15:08.884Z,100971.91
2022-10-06T22:17:37.607Z,100977.94
2022-10-06T22:20:07.459Z,100971.03
2022-10-06T22:22:37.720Z,100975.25
2022-10-06T22:25:06.893Z,100966.63
2022-10-06T22:27:35.684Z,100961.50
2022-10-06T22:30:04.959Z,100965.84
2022-10-06T22:32:33.751Z,100965.03
2022-10-06T22:35:02.611Z,100959.97
2022-10-06T22:37:31.219Z,100963.34
2022-10-06T22:40:05.358Z,100959.09
2022-10-06T22:42:36.202Z,100960.00
2022-10-06T22:45:05.388Z,100964.38
2022-10-06T22:47:34.240Z,100960.13
2022-10-06T22:50:02.891Z,100957.59
2022-10-06T22:52:31.601Z,100950.75
2022-10-06T22:55:01.650Z,100955.03
2022-10-06T22:57:30.433Z,100950.78
2022-10-06T22:59:59.081Z,100948.19
2022-10-06T23:02:28.242Z,100951.56
2022-10-06T23:04:56.912Z,100954.16
2022-10-06T23:07:26.591Z,100948.13
2022-10-06T23:09:55.362Z,100954.06
2022-10-06T23:12:25.550Z,100950.56
2022-10-06T23:14:54.379Z,100951.41
2022-10-06T23:17:23.081Z,100955.72
2022-10-06T23:19:51.680Z,100963.28
2022-10-06T23:22:20.421Z,100960.75
2022-10-06T23:24:49.231Z,100962.44
2022-10-06T23:27:17.851Z,100959.09
2022-10-06T23:29:47.993Z,100955.81
2022-10-06T23:32:16.590Z,100957.66
2022-10-06T23:34:45.224Z,100956.84
2022-10-06T23:37:13.859Z,100953.47
2022-10-06T23:39:42.630Z,100950.06
2022-10-06T23:42:11.541Z,100950.06
2022-10-06T23:44:41.260Z,100954.28
2022-10-06T23:47:11.503Z,100950.78
2022-10-06T23:49:41.781Z,100949.06
2022-10-06T23:52:10.839Z,100947.34
2022-10-06T23:54:39.583Z,100943.97
2022-10-06T23:57:08.322Z,100944.84
2022-10-06T23:59:37.121Z,100948.22
